Terminal Aerodrome Forecast
Issued by NWS

Home | Current Version | Previous Version | Text Only | Print | Product List | Glossary On
Versions: 1 2 3 4 5 6 7 8 9 10 11 12 13 14 15 16 17 18
000
FTUS42 KTBW 051800 AAA
TAFPIE
TAF AMD
KPIE 051848Z 0519/0618 21012G18KT P6SM BKN020
     FM052000 21012G18KT P6SM SCT020
     FM060000 24006KT P6SM BKN250
     FM060700 34008KT 4SM BR SCT005 OVC015
     FM061100 01010KT P6SM OVC025=

USA.gov is the U.S. government's official web portal to all federal, state and local government web resources and services.